Terminal Aerodrome Forecast
Issued by NWS

Current Version | Previous Version | Text Only | Print | Product List | Glossary On
Versions: 1 2 3 4 5 6 7 8 9 10 11 12 13 14 15 16 17 18 19
000
FTAK31 PAJN 250402 AAA
TAFAWG
TAF AMD
PAWG 250402Z 2504/2524 08006KT P6SM -RA FEW018 BKN030
      TEMPO 2504/2506 FEW020 BKN035
     FM251000 VRB06KT 4SM -RASN OVC020
     FM251800 18007KT P6SM -SHRA OVC040
      AMD LTD TO CLD VIS AND WIND 2506/2515=

USA.gov is the U.S. government's official web portal to all federal, state and local government web resources and services.